Time;durP1;ratioP1;P1;durP2;ratioP2;P2;SDS_P1;SDS_P2;PMS_P1;PMS_P2;Temp;Humidity;BMP_temperature;BMP_pressure;BME280_temperature;BME280_humidity;BME280_pressure;Samples;Min_cycle;Max_cycle;Signal;HPM_P1;HPM_P2
2023/03/09 00:00:34;;;;;;;11.03;6.93;;;;;;;8.68;74.34;93785.59;5051176;28;20217;-58
2023/03/09 00:03:00;;;;;;;11.67;7.23;;;;;;;8.58;75.88;93763.78;5051125;28;20213;-56
2023/03/09 00:05:25;;;;;;;11.87;6.60;;;;;;;8.60;75.08;93779.63;5051267;28;20232;-53
2023/03/09 00:07:53;;;;;;;11.07;7.00;;;;;;;8.49;74.71;93767.94;5051265;28;20281;-54
2023/03/09 00:10:19;;;;;;;12.63;5.83;;;;;;;8.61;74.62;93768.53;5051354;28;20205;-55
2023/03/09 00:12:44;;;;;;;15.10;6.77;;;;;;;8.45;75.90;93769.97;5051304;28;20676;-53
2023/03/09 00:15:10;;;;;;;15.70;7.93;;;;;;;8.44;76.43;93763.28;5051222;28;20213;-53
2023/03/09 00:17:36;;;;;;;12.40;5.93;;;;;;;8.50;75.91;93772.09;5050945;28;20284;-53
2023/03/09 00:20:19;;;;;;;11.40;6.90;;;;;;;8.46;75.78;93776.59;5051078;28;20216;-55
2023/03/09 00:22:49;;;;;;;11.70;6.27;;;;;;;8.25;76.56;93765.09;5051015;28;20209;-57
2023/03/09 00:25:16;;;;;;;13.77;8.10;;;;;;;8.15;78.37;93737.25;5090312;22;20231;-54
2023/03/09 00:27:41;;;;;;;13.57;7.77;;;;;;;8.25;78.13;93753.25;5111813;28;20186;-53
2023/03/09 00:30:09;;;;;;;12.77;6.60;;;;;;;8.22;77.90;93745.09;5111737;28;20214;-54
2023/03/09 00:32:35;;;;;;;15.77;7.10;;;;;;;8.34;77.77;93759.22;5111298;28;20176;-53
2023/03/09 00:35:00;;;;;;;12.73;6.57;;;;;;;8.33;76.59;93770.25;5111282;28;20592;-53
2023/03/09 00:37:26;;;;;;;8.57;5.80;;;;;;;8.16;76.82;93764.13;5111258;28;20191;-55
2023/03/09 00:39:51;;;;;;;9.50;5.93;;;;;;;8.11;77.21;93748.59;5092852;28;20253;-55
2023/03/09 00:42:17;;;;;;;14.13;5.93;;;;;;;8.05;78.31;93744.06;5111269;28;20199;-54
2023/03/09 00:44:42;;;;;;;11.67;5.50;;;;;;;8.08;78.31;93748.84;5111587;28;20277;-53
2023/03/09 00:47:08;;;;;;;11.60;6.57;;;;;;;8.01;78.21;93736.88;5111360;28;20194;-54
2023/03/09 00:49:33;;;;;;;11.27;5.57;;;;;;;7.90;79.72;93730.25;5111083;28;20222;-53
2023/03/09 00:51:58;;;;;;;9.03;5.27;;;;;;;8.01;78.63;93744.47;5111337;28;20733;-55
2023/03/09 00:54:24;;;;;;;9.30;5.77;;;;;;;8.08;78.12;93751.38;5111259;28;20700;-58
2023/03/09 00:56:49;;;;;;;8.20;5.00;;;;;;;7.90;79.07;93720.13;5111003;28;20186;-58
2023/03/09 00:59:15;;;;;;;11.40;5.73;;;;;;;7.98;79.58;93712.66;5110752;28;20207;-58
2023/03/09 01:01:41;;;;;;;8.40;5.37;;;;;;;7.75;81.06;93698.75;5111105;28;20225;-57
2023/03/09 01:04:06;;;;;;;8.60;5.97;;;;;;;7.77;81.12;93717.09;5110760;28;20685;-57
2023/03/09 01:06:32;;;;;;;7.80;5.03;;;;;;;8.00;79.54;93746.19;5113666;28;20587;-54
2023/03/09 01:08:57;;;;;;;6.30;4.53;;;;;;;7.78;79.64;93717.91;5114437;28;20285;-54
2023/03/09 01:11:23;;;;;;;10.43;5.07;;;;;;;7.91;79.63;93749.56;5114525;28;20182;-56
2023/03/09 01:13:48;;;;;;;9.13;4.90;;;;;;;8.04;79.73;93770.31;5114388;28;20204;-56
2023/03/09 01:16:27;;;;;;;8.67;5.40;;;;;;;8.19;78.21;93774.00;5114463;28;20168;-57
2023/03/09 01:18:53;;;;;;;9.20;4.97;;;;;;;8.23;79.44;93760.13;5114391;28;20246;-55
2023/03/09 01:21:18;;;;;;;11.70;5.50;;;;;;;8.11;79.41;93756.19;5114458;28;20234;-56
2023/03/09 01:23:44;;;;;;;9.93;5.10;;;;;;;8.37;77.89;93777.44;5114020;28;20206;-56
2023/03/09 01:26:09;;;;;;;12.83;5.33;;;;;;;8.22;78.11;93745.88;5114406;28;20195;-53
2023/03/09 01:28:35;;;;;;;8.20;4.17;;;;;;;8.04;79.15;93713.84;5099986;22;20219;-54
2023/03/09 01:31:09;;;;;;;7.63;4.83;;;;;;;8.43;77.82;93760.91;5093792;28;20184;-57
2023/03/09 01:33:36;;;;;;;8.37;4.87;;;;;;;8.38;77.41;93758.78;5093953;28;20184;-54
2023/03/09 01:36:04;;;;;;;9.90;4.67;;;;;;;8.35;77.70;93768.38;5093778;28;20188;-53
2023/03/09 01:38:29;;;;;;;17.00;10.90;;;;;;;8.39;78.37;93764.66;5093838;28;20184;-54
2023/03/09 01:40:55;;;;;;;11.23;5.87;;;;;;;8.59;77.41;93778.03;5093783;28;20199;-54
2023/03/09 01:43:39;;;;;;;8.50;4.83;;;;;;;8.60;76.61;93790.56;5093589;28;20361;-57
2023/03/09 01:46:20;;;;;;;5.93;4.00;;;;;;;8.29;78.27;93759.63;5093621;28;20271;-58
2023/03/09 01:49:09;;;;;;;6.17;3.57;;;;;;;8.12;78.36;93751.91;5093272;28;20296;-56
2023/03/09 01:52:07;;;;;;;6.70;3.60;;;;;;;8.21;78.00;93730.84;5080939;28;20215;-58
2023/03/09 01:54:42;;;;;;;7.30;4.50;;;;;;;8.06;80.99;93686.66;5086260;28;20220;-57
2023/03/09 01:57:17;;;;;;;10.60;3.87;;;;;;;7.81;80.39;93718.44;5093430;28;20581;-54
2023/03/09 01:59:44;;;;;;;8.70;3.90;;;;;;;7.90;80.34;93727.72;5093709;28;20211;-54
2023/03/09 02:02:10;;;;;;;8.97;4.23;;;;;;;8.02;78.90;93734.22;5093335;28;20192;-54
2023/03/09 02:04:46;;;;;;;6.03;3.90;;;;;;;8.17;77.95;93754.81;5093377;28;20227;-52
2023/03/09 02:07:14;;;;;;;8.87;4.07;;;;;;;8.23;78.95;93744.94;5093259;28;20192;-54
2023/03/09 02:10:04;;;;;;;6.17;3.70;;;;;;;8.46;77.20;93774.06;5093456;28;20211;-58
2023/03/09 02:12:30;;;;;;;5.63;3.30;;;;;;;8.27;78.44;93736.19;5093429;28;20279;-53
2023/03/09 02:14:56;;;;;;;6.50;3.70;;;;;;;8.40;79.27;93754.38;5093374;28;20231;-53
2023/03/09 02:17:22;;;;;;;7.47;3.50;;;;;;;8.36;78.65;93765.72;5093117;28;20196;-54
2023/03/09 02:20:08;;;;;;;6.10;3.80;;;;;;;8.61;77.43;93789.63;5092841;28;20204;-54
2023/03/09 02:22:38;;;;;;;9.37;4.20;;;;;;;8.55;77.05;93796.97;5092625;28;20200;-53
2023/03/09 02:25:12;;;;;;;5.80;3.80;;;;;;;8.68;76.37;93807.59;5092607;28;20236;-53
2023/03/09 02:27:38;;;;;;;8.70;3.97;;;;;;;8.70;76.05;93806.53;5093029;28;20672;-57
2023/03/09 02:30:04;;;;;;;7.33;4.23;;;;;;;8.43;77.20;93787.03;5093070;28;20200;-58
2023/03/09 02:32:31;;;;;;;7.63;4.20;;;;;;;8.44;77.85;93775.16;5092544;28;20188;-58
2023/03/09 02:34:57;;;;;;;7.90;4.03;;;;;;;8.52;77.08;93793.00;5092953;28;20196;-58
2023/03/09 02:37:28;;;;;;;10.23;5.83;;;;;;;8.33;80.55;93743.22;5092733;28;20188;-54
2023/03/09 02:40:01;;;;;;;6.40;3.73;;;;;;;8.48;77.89;93773.16;5092911;28;20203;-54
2023/03/09 02:42:27;;;;;;;8.03;3.43;;;;;;;8.50;77.54;93779.69;5092736;28;20204;-58
2023/03/09 02:44:53;;;;;;;7.57;4.23;;;;;;;8.35;79.42;93768.38;5093090;28;20203;-55
2023/03/09 02:47:22;;;;;;;8.20;3.93;;;;;;;8.43;78.32;93776.91;5092712;28;20245;-58
2023/03/09 02:49:47;;;;;;;5.83;3.53;;;;;;;8.45;77.43;93795.28;5074389;28;20200;-56
2023/03/09 02:52:14;;;;;;;5.37;3.73;;;;;;;8.28;79.01;93767.38;5092662;28;20184;-55
2023/03/09 02:54:39;;;;;;;5.80;3.80;;;;;;;8.56;78.05;93780.84;5092806;28;20204;-58
2023/03/09 02:57:06;;;;;;;7.80;3.30;;;;;;;8.61;76.50;93794.69;5092680;28;20191;-53
2023/03/09 02:59:31;;;;;;;5.07;3.47;;;;;;;8.41;77.60;93788.91;5092536;28;20666;-53
2023/03/09 03:01:57;;;;;;;7.37;3.30;;;;;;;8.41;78.19;93780.50;5092471;28;20249;-54
2023/03/09 03:04:23;;;;;;;4.30;2.90;;;;;;;8.48;77.32;93808.59;5092336;28;20251;-54
2023/03/09 03:06:48;;;;;;;8.47;2.97;;;;;;;8.47;77.56;93812.88;5092554;28;20641;-56
2023/03/09 03:09:13;;;;;;;7.03;2.70;;;;;;;8.62;77.08;93816.56;5074229;28;20306;-55
2023/03/09 03:11:39;;;;;;;5.97;2.57;;;;;;;8.67;77.29;93826.25;5092282;28;20192;-54
2023/03/09 03:14:04;;;;;;;4.23;2.90;;;;;;;8.66;76.12;93820.41;5092368;28;20200;-56
2023/03/09 03:16:30;;;;;;;6.57;2.77;;;;;;;8.79;76.25;93846.22;5092316;28;20234;-55
2023/03/09 03:18:55;;;;;;;6.33;2.93;;;;;;;8.84;76.12;93853.41;5092462;28;20212;-56
2023/03/09 03:21:20;;;;;;;7.63;3.53;;;;;;;8.81;76.30;93835.94;5092123;28;20196;-56
2023/03/09 03:23:46;;;;;;;6.37;3.17;;;;;;;8.71;75.82;93830.91;5092093;28;20215;-55
2023/03/09 03:26:12;;;;;;;7.93;3.40;;;;;;;8.77;75.73;93847.28;5092077;28;20237;-56
2023/03/09 03:28:37;;;;;;;7.37;4.03;;;;;;;8.58;76.41;93804.31;5073318;28;20187;-54
2023/03/09 03:31:03;;;;;;;5.37;3.30;;;;;;;8.61;77.35;93801.47;5091908;28;20196;-53
2023/03/09 03:33:29;;;;;;;6.33;2.90;;;;;;;8.53;78.03;93806.44;5091897;28;20283;-53
2023/03/09 03:35:55;;;;;;;4.27;2.77;;;;;;;8.58;76.09;93834.69;5091940;28;20192;-53
2023/03/09 03:38:20;;;;;;;6.23;3.70;;;;;;;8.66;76.10;93839.88;5091924;28;20230;-57
2023/03/09 03:40:46;;;;;;;6.53;3.97;;;;;;;8.70;76.94;93833.59;5091868;28;20208;-56
2023/03/09 03:43:11;;;;;;;7.03;3.80;;;;;;;8.63;75.42;93842.66;5091819;28;20565;-53
2023/03/09 03:45:37;;;;;;;8.83;3.53;;;;;;;8.61;77.01;93802.28;5091641;28;20208;-52
2023/03/09 03:48:02;;;;;;;7.73;3.10;;;;;;;8.55;78.03;93810.44;5091486;28;20575;-53
2023/03/09 03:50:28;;;;;;;7.57;3.80;;;;;;;8.62;77.88;93810.69;5091684;28;20204;-56
2023/03/09 03:52:53;;;;;;;6.60;3.23;;;;;;;8.53;77.10;93826.69;5091568;28;20184;-53
2023/03/09 03:55:19;;;;;;;7.10;3.27;;;;;;;8.48;76.75;93823.81;5091517;28;20208;-54
2023/03/09 03:57:44;;;;;;;4.13;3.10;;;;;;;8.41;77.55;93828.59;5091488;28;20217;-54
2023/03/09 04:00:10;;;;;;;5.47;3.20;;;;;;;8.61;76.61;93839.47;5073357;28;20586;-53
2023/03/09 04:02:36;;;;;;;7.00;3.03;;;;;;;8.67;76.37;93839.72;5091302;28;20184;-54
2023/03/09 04:05:02;;;;;;;4.17;2.60;;;;;;;8.55;76.22;93822.28;5091319;28;20294;-54
2023/03/09 04:07:28;;;;;;;6.13;3.30;;;;;;;8.60;77.34;93826.03;5091457;28;20180;-53
2023/03/09 04:09:53;;;;;;;5.23;2.80;;;;;;;8.63;75.88;93840.94;5073048;28;20204;-53
2023/03/09 04:12:19;;;;;;;6.07;2.90;;;;;;;8.69;75.59;93854.78;5090063;28;20393;-57
2023/03/09 04:14:44;;;;;;;4.43;3.13;;;;;;;8.64;75.51;93840.03;5091146;28;20579;-58
2023/03/09 04:17:10;;;;;;;4.57;3.10;;;;;;;8.61;75.74;93831.88;5091264;28;20385;-58
2023/03/09 04:19:36;;;;;;;5.57;2.93;;;;;;;8.56;76.69;93811.25;5091465;28;20223;-54
2023/03/09 04:22:03;;;;;;;6.37;3.40;;;;;;;8.63;77.18;93823.22;5091282;28;20192;-53
2023/03/09 04:24:28;;;;;;;6.03;4.23;;;;;;;8.55;77.19;93817.22;5091290;28;20287;-56
2023/03/09 04:26:53;;;;;;;8.07;3.43;;;;;;;8.75;76.22;93828.88;5091147;28;20268;-58
2023/03/09 04:29:19;;;;;;;8.73;3.40;;;;;;;8.73;76.85;93813.84;5091221;28;20547;-58
2023/03/09 04:31:44;;;;;;;5.50;3.30;;;;;;;8.85;75.67;93812.72;5091165;28;20271;-57
2023/03/09 04:34:11;;;;;;;5.13;3.13;;;;;;;8.77;75.09;93822.75;5090891;28;20269;-57
2023/03/09 04:36:36;;;;;;;8.93;3.70;;;;;;;8.73;75.40;93823.16;5091001;28;20180;-57
2023/03/09 04:39:04;;;;;;;5.70;3.47;;;;;;;8.75;75.62;93832.22;5090983;28;20215;-58
2023/03/09 04:41:30;;;;;;;8.17;3.67;;;;;;;8.72;76.29;93816.50;5089998;28;20708;-55
2023/03/09 04:43:56;;;;;;;5.60;3.20;;;;;;;8.87;75.43;93804.97;5090905;28;20650;-55
2023/03/09 04:46:22;;;;;;;5.77;3.50;;;;;;;8.53;77.29;93779.38;5090950;28;20676;-57
2023/03/09 04:48:47;;;;;;;8.07;4.30;;;;;;;8.67;77.54;93786.53;5090688;28;20294;-54
2023/03/09 04:51:13;;;;;;;7.97;3.97;;;;;;;8.68;78.13;93767.06;5090711;28;20196;-57
2023/03/09 04:53:38;;;;;;;6.33;4.30;;;;;;;8.53;78.35;93760.84;5090534;28;20646;-57
2023/03/09 04:56:04;;;;;;;7.10;3.40;;;;;;;8.84;77.85;93783.25;5090865;28;20181;-58
2023/03/09 04:58:29;;;;;;;6.73;3.70;;;;;;;8.70;77.14;93806.53;5090440;28;20188;-58
2023/03/09 05:00:55;;;;;;;14.27;4.20;;;;;;;8.59;77.53;93778.81;5090605;28;20216;-59
2023/03/09 05:03:20;;;;;;;8.13;4.13;;;;;;;8.61;76.89;93793.88;5090546;28;20712;-59
2023/03/09 05:05:45;;;;;;;13.00;4.10;;;;;;;8.84;76.76;93790.88;5090483;28;20258;-54
2023/03/09 05:08:11;;;;;;;7.57;4.00;;;;;;;8.89;93.31;93618.09;5090752;28;20195;-56
2023/03/09 05:10:36;;;;;;;6.93;4.17;;;;;;;8.71;79.28;93804.78;5090520;28;20249;-57
2023/03/09 05:13:02;;;;;;;6.33;3.80;;;;;;;8.96;77.81;93820.16;5072280;28;20203;-53
2023/03/09 05:15:27;;;;;;;7.07;3.93;;;;;;;8.93;77.48;93825.50;5090403;28;20204;-54
2023/03/09 05:17:53;;;;;;;9.67;3.93;;;;;;;8.90;76.33;93850.31;5090237;28;20562;-54
2023/03/09 05:20:18;;;;;;;8.80;4.23;;;;;;;8.77;76.94;93835.44;5090218;28;20219;-56
2023/03/09 05:22:44;;;;;;;12.30;5.10;;;;;;;8.90;76.47;93824.97;5090325;28;20185;-60
2023/03/09 05:25:09;;;;;;;15.60;6.00;;;;;;;8.91;76.62;93813.88;5090583;28;20658;-54
2023/03/09 05:27:35;;;;;;;17.93;5.80;;;;;;;8.81;77.22;93825.81;5090082;28;20276;-59
2023/03/09 05:30:01;;;;;;;9.37;5.17;;;;;;;8.76;76.43;93828.78;5090450;28;20771;-58
2023/03/09 05:32:27;;;;;;;10.07;4.90;;;;;;;8.75;76.26;93831.44;5090249;28;20195;-59
2023/03/09 05:34:52;;;;;;;12.20;5.23;;;;;;;8.58;77.16;93809.38;5071922;28;20216;-57
2023/03/09 05:37:17;;;;;;;8.90;4.83;;;;;;;8.87;77.24;93836.19;5072155;28;20192;-58
2023/03/09 05:39:43;;;;;;;10.07;5.27;;;;;;;8.92;76.89;93831.50;5079449;22;20339;-59
2023/03/09 05:42:08;;;;;;;12.83;5.20;;;;;;;9.01;76.60;93863.59;5090158;28;20577;-54
2023/03/09 05:44:34;;;;;;;12.33;5.27;;;;;;;9.28;75.84;93878.03;5090132;28;20257;-54
2023/03/09 05:46:59;;;;;;;7.97;4.47;;;;;;;10.39;100.00;93736.22;5090233;28;20181;-60
2023/03/09 05:49:28;;;;;;;5.83;4.50;;;;;;;11.18;100.00;93836.66;5090027;28;20210;-59
2023/03/09 05:51:54;;;;;;;9.93;4.70;;;;;;;11.09;98.55;94187.78;5091472;28;20184;-59
2023/03/09 05:54:20;;;;;;;12.60;5.30;;;;;;;10.61;99.03;94144.84;5093880;28;20216;-55
2023/03/09 05:56:45;;;;;;;9.30;4.80;;;;;;;10.50;98.64;94135.69;5093422;28;20176;-55
2023/03/09 05:59:10;;;;;;;9.63;4.77;;;;;;;10.35;98.60;94133.75;5093363;28;20208;-57
2023/03/09 06:01:36;;;;;;;10.43;4.63;;;;;;;10.48;97.30;94164.72;5093639;28;20180;-56
2023/03/09 06:04:02;;;;;;;15.93;5.70;;;;;;;10.40;96.71;94177.34;5093306;28;20572;-57
2023/03/09 06:06:27;;;;;;;11.70;5.17;;;;;;;10.10;99.85;94097.09;5093276;28;20274;-57
2023/03/09 06:08:52;;;;;;;10.63;5.17;;;;;;;9.69;99.97;94100.84;5093404;28;20657;-55
2023/03/09 06:11:18;;;;;;;15.00;5.93;;;;;;;9.71;100.00;94073.59;5093098;28;20188;-54
2023/03/09 06:13:43;;;;;;;13.53;5.57;;;;;;;9.78;100.00;94082.25;5093199;28;20200;-54
2023/03/09 06:16:14;;;;;;;18.93;6.90;;;;;;;9.65;100.00;94081.75;5093192;28;20195;-54
2023/03/09 06:18:40;;;;;;;14.87;6.50;;;;;;;9.47;100.00;94068.19;5093195;28;20219;-53
2023/03/09 06:21:07;;;;;;;20.73;7.57;;;;;;;9.33;100.00;94054.19;5093114;28;20748;-54
2023/03/09 06:23:35;;;;;;;17.17;8.00;;;;;;;9.56;100.00;94062.28;5093252;28;20214;-55
2023/03/09 06:26:03;;;;;;;14.83;8.00;;;;;;;9.62;100.00;94066.00;5092837;28;20696;-58
2023/03/09 06:28:28;;;;;;;17.90;7.57;;;;;;;9.59;100.00;94062.03;5092885;28;20188;-59
2023/03/09 06:30:54;;;;;;;14.10;7.57;;;;;;;9.89;99.68;94101.59;5092831;28;20255;-58
2023/03/09 06:33:19;;;;;;;16.93;7.37;;;;;;;9.94;99.71;94105.28;5092530;28;20565;-58
2023/03/09 06:35:44;;;;;;;13.87;7.00;;;;;;;9.98;98.96;94116.78;5092623;28;20204;-59
2023/03/09 06:38:10;;;;;;;18.20;5.67;;;;;;;9.97;97.94;94137.22;5092705;28;20549;-59
2023/03/09 06:40:35;;;;;;;9.17;5.03;;;;;;;10.03;98.44;94139.22;5092739;28;20206;-62
2023/03/09 06:43:19;;;;;;;7.77;4.80;;;;;;;10.20;97.00;94163.13;5092797;28;20261;-59
2023/03/09 06:45:45;;;;;;;6.60;3.47;;;;;;;10.41;96.54;94161.94;5074617;28;20207;-54
2023/03/09 06:48:11;;;;;;;6.50;3.70;;;;;;;10.56;94.80;94205.47;5092645;28;20184;-56
2023/03/09 06:50:36;;;;;;;10.57;3.33;;;;;;;10.66;94.22;94211.31;5092369;28;20227;-54
2023/03/09 06:53:02;;;;;;;4.60;3.00;;;;;;;10.63;94.78;94181.09;5092416;28;20253;-55
2023/03/09 06:55:28;;;;;;;7.27;3.27;;;;;;;10.73;93.52;94199.63;5092432;28;20254;-54
2023/03/09 06:57:53;;;;;;;6.80;2.93;;;;;;;10.49;96.15;94138.34;5092643;28;20210;-54
2023/03/09 07:00:20;;;;;;;10.57;3.70;;;;;;;10.75;94.50;94164.69;5092369;28;20208;-53
2023/03/09 07:02:46;;;;;;;10.93;4.40;;;;;;;10.83;94.50;94172.41;5091093;28;20546;-54
2023/03/09 07:05:12;;;;;;;12.23;3.63;;;;;;;10.79;93.36;94192.25;5092397;28;20270;-53
2023/03/09 07:07:38;;;;;;;8.90;5.00;;;;;;;10.65;95.33;94146.16;5092469;28;20191;-55
2023/03/09 07:10:05;;;;;;;7.93;4.73;;;;;;;10.72;94.68;94160.72;5092337;28;20287;-54
2023/03/09 07:12:30;;;;;;;9.80;4.90;;;;;;;10.82;93.94;94173.38;5092050;28;20706;-54
2023/03/09 07:14:56;;;;;;;12.60;6.57;;;;;;;10.80;95.90;94127.75;5092023;28;20216;-54
2023/03/09 07:17:21;;;;;;;24.80;10.83;;;;;;;10.81;94.50;94175.09;5091974;28;20176;-54
2023/03/09 07:19:47;;;;;;;21.57;10.60;;;;;;;10.93;92.31;94229.09;5091902;28;20212;-54
2023/03/09 07:22:13;;;;;;;20.07;10.50;;;;;;;11.13;91.94;94232.34;5092159;28;20217;-54
2023/03/09 07:24:38;;;;;;;22.77;10.60;;;;;;;11.34;92.01;94223.47;5092401;28;20216;-57
2023/03/09 07:27:04;;;;;;;23.43;11.70;;;;;;;11.20;91.60;94226.53;5092064;28;20168;-54
2023/03/09 07:29:30;;;;;;;23.87;11.67;;;;;;;11.12;76.62;94172.22;5092159;28;20228;-54
2023/03/09 07:31:55;;;;;;;16.40;9.20;;;;;;;11.34;74.01;94226.03;5091811;28;20198;-54
2023/03/09 07:34:21;;;;;;;15.50;8.13;;;;;;;11.37;73.29;94223.19;5091960;28;20223;-54
2023/03/09 07:36:48;;;;;;;11.13;6.73;;;;;;;11.41;71.07;94244.84;5091834;28;20278;-58
2023/03/09 07:39:14;;;;;;;12.23;6.47;;;;;;;11.50;69.87;94233.81;5091964;28;20297;-57
2023/03/09 07:41:41;;;;;;;13.73;6.10;;;;;;;11.51;70.71;94215.03;5091768;28;20227;-57
2023/03/09 07:44:07;;;;;;;11.00;5.77;;;;;;;11.71;70.03;94234.34;5091719;28;20320;-58
2023/03/09 07:46:32;;;;;;;9.37;5.13;;;;;;;11.91;69.34;94252.81;5091587;28;20222;-57
2023/03/09 07:48:58;;;;;;;8.87;4.40;;;;;;;11.89;66.92;94310.72;5091845;28;20236;-55
2023/03/09 07:51:23;;;;;;;8.87;4.00;;;;;;;11.98;67.06;94307.28;5091570;28;20180;-53
2023/03/09 07:53:49;;;;;;;6.17;3.50;;;;;;;12.17;65.84;94326.72;5091788;28;20204;-59
2023/03/09 07:56:15;;;;;;;6.33;3.33;;;;;;;12.20;66.08;94334.09;5091416;28;20184;-54
2023/03/09 07:58:41;;;;;;;10.60;3.77;;;;;;;12.13;66.97;94297.38;5090278;28;20188;-54
2023/03/09 08:01:13;;;;;;;9.37;4.40;;;;;;;12.31;65.85;94319.34;5091600;28;20242;-55
2023/03/09 08:03:38;;;;;;;7.80;4.53;;;;;;;12.44;65.94;94314.66;5091222;28;20212;-54
2023/03/09 08:06:05;;;;;;;6.90;3.60;;;;;;;12.44;66.11;94294.25;5091522;28;20188;-54
2023/03/09 08:08:32;;;;;;;11.47;3.97;;;;;;;12.41;66.75;94278.47;5091243;28;20184;-53
2023/03/09 08:10:58;;;;;;;7.57;4.13;;;;;;;12.57;65.87;94317.63;5091148;28;20192;-54
2023/03/09 08:13:23;;;;;;;7.20;3.97;;;;;;;12.82;64.39;94344.06;5091257;28;20263;-54
2023/03/09 08:15:49;;;;;;;11.27;4.10;;;;;;;13.05;64.42;94367.34;5090902;28;20720;-54
2023/03/09 08:18:17;;;;;;;6.37;3.77;;;;;;;12.99;63.04;94370.47;5091247;28;20187;-53
2023/03/09 08:20:43;;;;;;;7.30;3.30;;;;;;;12.93;63.63;94363.44;5091045;28;20196;-54
2023/03/09 08:23:09;;;;;;;10.03;3.53;;;;;;;13.10;64.37;94345.53;5091000;28;20208;-54
2023/03/09 08:25:34;;;;;;;6.93;3.80;;;;;;;13.17;64.71;94338.84;5090824;28;20208;-55
2023/03/09 08:28:00;;;;;;;15.27;5.07;;;;;;;13.25;63.99;94350.88;5091035;28;20184;-54
2023/03/09 08:30:26;;;;;;;8.23;4.10;;;;;;;13.26;65.14;94307.31;5091122;28;20208;-54
2023/03/09 08:32:53;;;;;;;8.83;3.83;;;;;;;13.32;63.41;94355.19;5090786;28;20184;-54
2023/03/09 08:35:22;;;;;;;11.10;4.05;;;;;;;13.54;61.60;94391.31;5091074;28;20756;-54
2023/03/09 08:37:48;;;;;;;10.37;3.87;;;;;;;13.55;62.59;94363.09;5072544;28;20187;-55
2023/03/09 08:40:15;;;;;;;5.77;3.23;;;;;;;13.54;61.73;94404.09;5091044;28;20430;-53
2023/03/09 08:42:41;;;;;;;7.03;4.17;;;;;;;13.49;61.00;94404.56;5090720;28;20571;-56
2023/03/09 08:45:07;;;;;;;6.70;3.47;;;;;;;13.52;61.23;94385.56;5090855;28;20216;-55
2023/03/09 08:47:33;;;;;;;7.07;4.30;;;;;;;13.57;61.04;94398.69;5090642;28;20196;-56
2023/03/09 08:49:59;;;;;;;10.30;3.77;;;;;;;13.61;62.36;94354.00;5090697;28;20207;-57
2023/03/09 08:52:24;;;;;;;9.73;4.07;;;;;;;13.86;62.28;94338.56;5090838;28;20192;-57
2023/03/09 08:54:50;;;;;;;8.33;4.27;;;;;;;14.15;61.29;94379.84;5091200;28;20212;-57
2023/03/09 08:57:16;;;;;;;9.03;3.63;;;;;;;14.20;61.21;94379.38;5090537;28;20207;-57
2023/03/09 08:59:42;;;;;;;6.60;3.73;;;;;;;14.16;60.29;94401.06;5091009;28;20208;-56
2023/03/09 09:02:13;;;;;;;5.80;3.70;;;;;;;14.12;60.31;94382.69;5090708;28;20665;-57
2023/03/09 09:04:42;;;;;;;6.93;3.80;;;;;;;14.46;60.16;94386.94;5089324;28;20263;-57
2023/03/09 09:07:08;;;;;;;8.65;3.70;;;;;;;14.42;59.88;94383.09;5072386;28;20264;-62
2023/03/09 09:09:33;;;;;;;7.57;4.50;;;;;;;14.27;59.87;94390.56;5090670;28;20673;-57
2023/03/09 09:11:59;;;;;;;7.53;4.10;;;;;;;14.17;59.90;94372.81;5090484;28;20188;-55
2023/03/09 09:14:24;;;;;;;9.17;4.77;;;;;;;14.17;60.93;94343.88;5072370;28;20596;-56
2023/03/09 09:16:50;;;;;;;8.80;4.87;;;;;;;13.89;60.57;94332.34;5090408;28;20572;-56
2023/03/09 09:19:16;;;;;;;11.57;6.28;;;;;;;13.64;61.62;94292.38;5090346;28;20254;-56
2023/03/09 09:21:42;;;;;;;8.63;5.40;;;;;;;13.59;62.77;94257.13;5090251;28;20192;-57
2023/03/09 09:24:08;;;;;;;8.33;5.17;;;;;;;13.64;62.21;94244.66;5090623;28;20638;-55
2023/03/09 09:26:34;;;;;;;9.07;4.78;;;;;;;13.74;62.01;94257.28;5091406;28;20662;-56
2023/03/09 09:29:01;;;;;;;13.63;5.75;;;;;;;13.90;61.63;94282.84;5093906;28;20214;-54
2023/03/09 09:31:27;;;;;;;10.00;3.40;;;;;;;14.19;59.48;94331.75;5093760;28;20267;-55
2023/03/09 09:33:53;;;;;;;4.63;3.33;;;;;;;14.47;61.24;94301.53;5093653;28;20645;-54
2023/03/09 09:36:19;;;;;;;8.60;3.87;;;;;;;14.86;59.04;94364.66;5093845;28;20196;-57
2023/03/09 09:38:46;;;;;;;10.55;4.38;;;;;;;15.08;58.06;94384.47;5093682;28;20731;-58
2023/03/09 09:41:22;;;;;;;8.70;4.07;;;;;;;15.35;57.53;94390.16;5075499;28;20309;-58
2023/03/09 09:43:51;;;;;;;8.15;3.22;;;;;;;15.68;56.80;94412.16;5075475;28;20208;-59
2023/03/09 09:46:20;;;;;;;6.65;3.05;;;;;;;15.90;54.78;94466.06;5093415;28;20192;-59
2023/03/09 09:48:48;;;;;;;8.68;2.88;;;;;;;16.50;53.79;94499.59;5075871;28;20275;-59
2023/03/09 09:51:38;;;;;;;9.57;3.42;;;;;;;16.95;52.61;94528.88;5075351;28;20551;-58
2023/03/09 09:54:30;;;;;;;8.23;3.13;;;;;;;17.85;51.18;94414.75;5093725;28;20607;-59
2023/03/09 09:57:00;;;;;;;6.20;3.88;;;;;;;18.27;50.25;94366.75;5093465;28;20187;-58
2023/03/09 09:59:51;;;;;;;6.68;3.05;;;;;;;18.58;47.46;94405.09;5093743;28;20216;-58
2023/03/09 10:02:32;;;;;;;5.32;3.20;;;;;;;19.14;46.78;94382.75;5093404;28;20184;-58
2023/03/09 10:05:05;;;;;;;6.55;3.60;;;;;;;19.75;46.23;94373.38;5093738;28;20247;-59
2023/03/09 10:07:35;;;;;;;10.32;3.10;;;;;;;20.15;44.64;94384.63;5093240;28;20190;-59
2023/03/09 10:10:04;;;;;;;7.93;3.10;;;;;;;20.36;44.63;94350.97;5091752;28;20216;-59
2023/03/09 10:12:30;;;;;;;4.57;3.22;;;;;;;20.29;43.00;94355.31;5074978;28;20254;-58
2023/03/09 10:15:09;;;;;;;4.18;2.92;;;;;;;20.87;43.29;94329.50;5075235;28;20208;-58
2023/03/09 10:17:58;;;;;;;6.40;3.05;;;;;;;20.40;43.45;94280.63;5075064;28;20184;-57
2023/03/09 10:20:32;;;;;;;3.58;3.00;;;;;;;20.60;42.15;94302.13;5092535;28;20648;-56
2023/03/09 10:22:58;;;;;;;4.95;3.00;;;;;;;20.93;41.35;94307.22;5092900;28;20192;-54
2023/03/09 10:25:25;;;;;;;9.43;3.20;;;;;;;21.23;41.61;94274.78;5093028;28;20211;-54
2023/03/09 10:28:04;;;;;;;9.93;2.72;;;;;;;21.40;40.99;94267.34;5093082;28;20266;-55
2023/03/09 10:30:40;;;;;;;6.88;2.67;;;;;;;21.32;40.83;94265.81;5092991;28;20204;-56
2023/03/09 10:33:15;;;;;;;9.13;2.95;;;;;;;21.50;40.89;94250.41;5093040;28;20234;-55
2023/03/09 10:35:45;;;;;;;3.50;2.38;;;;;;;21.80;40.29;94261.00;5092939;28;20196;-55
2023/03/09 10:38:15;;;;;;;5.63;2.47;;;;;;;22.01;39.45;94265.09;5092820;28;20188;-55
2023/03/09 10:40:49;;;;;;;6.65;2.80;;;;;;;22.22;39.90;94244.81;5092586;28;20208;-55
2023/03/09 10:43:36;;;;;;;4.20;2.53;;;;;;;22.59;38.32;94266.47;5092651;28;20334;-55
2023/03/09 10:46:18;;;;;;;6.72;3.20;;;;;;;22.89;38.23;94251.03;5092409;28;20202;-55
2023/03/09 10:48:45;;;;;;;5.03;3.17;;;;;;;22.90;37.92;94255.22;5092642;28;20650;-54
2023/03/09 10:51:38;;;;;;;6.47;2.45;;;;;;;23.00;36.56;94271.09;5092550;28;20257;-54
2023/03/09 10:54:29;;;;;;;4.78;2.78;;;;;;;21.88;38.50;94174.56;5092729;28;20215;-55
2023/03/09 10:56:55;;;;;;;4.97;2.25;;;;;;;21.56;40.91;94128.00;5092630;28;20184;-54
2023/03/09 10:59:26;;;;;;;5.47;1.67;;;;;;;21.36;39.18;94147.22;5092459;28;20200;-56
2023/03/09 11:01:59;;;;;;;2.70;1.77;;;;;;;22.72;38.04;94180.03;5092453;28;20606;-60
2023/03/09 11:04:34;;;;;;;3.92;1.30;;;;;;;23.13;37.68;94175.78;5074288;28;20224;-60
2023/03/09 11:07:03;;;;;;;3.80;2.00;;;;;;;23.16;35.65;94229.81;5092423;28;20198;-59
2023/03/09 11:09:47;;;;;;;9.30;4.38;;;;;;;23.23;36.10;94211.59;5092604;28;20200;-59
2023/03/09 11:12:39;;;;;;;3.83;2.33;;;;;;;23.16;35.57;94205.69;5092378;28;20177;-60
2023/03/09 11:15:33;;;;;;;4.30;1.73;;;;;;;22.73;36.54;94166.88;5092547;28;20339;-60
2023/03/09 11:18:00;;;;;;;1.65;1.25;;;;;;;23.00;36.09;94162.19;5092131;28;20187;-56
2023/03/09 11:20:38;;;;;;;1.58;1.38;;;;;;;22.84;36.60;94152.41;5092222;28;20204;-56
2023/03/09 11:23:12;;;;;;;4.57;1.40;;;;;;;23.25;35.75;94171.44;5092237;28;20187;-55
2023/03/09 11:26:01;;;;;;;2.85;1.15;;;;;;;21.96;37.42;94105.22;5092029;28;20708;-55
2023/03/09 11:31:00;;;;;;;2.55;1.25;;;;;;;21.57;37.70;94095.16;5099345;22;20235;-54
2023/03/09 11:33:27;;;;;;;2.58;1.13;;;;;;;20.69;38.94;94031.41;5091606;28;20199;-59
2023/03/09 11:35:54;;;;;;;2.60;1.00;;;;;;;20.68;38.62;94038.41;5092001;28;20263;-58
2023/03/09 11:38:20;;;;;;;2.20;0.82;;;;;;;20.81;38.91;94027.19;5091900;28;20271;-59
2023/03/09 11:40:49;;;;;;;1.42;1.00;;;;;;;20.97;38.41;94031.84;5091964;28;20236;-57